Time;durP1;ratioP1;P1;durP2;ratioP2;P2;SDS_P1;SDS_P2;PMS_P1;PMS_P2;Temp;Humidity;BMP_temperature;BMP_pressure;BME280_temperature;BME280_humidity;BME280_pressure;Samples;Min_cycle;Max_cycle;Signal;HPM_P1;HPM_P2
2023/08/12 00:01:42;;;;;;;14.25;8.32;;;21.20;99.90;;;;;;6133757;23;20055;-88
2023/08/12 00:04:08;;;;;;;12.45;8.95;;;21.20;99.90;;;;;;6159330;23;20059;-88
2023/08/12 00:06:33;;;;;;;11.43;8.50;;;21.20;99.90;;;;;;6134245;23;20009;-88
2023/08/12 00:08:59;;;;;;;12.10;8.35;;;21.20;99.90;;;;;;6134274;23;20048;-88
2023/08/12 00:11:24;;;;;;;12.88;9.32;;;21.10;99.90;;;;;;6159454;23;20020;-88
2023/08/12 00:13:50;;;;;;;11.95;8.50;;;21.10;99.90;;;;;;6134752;23;20017;-88
2023/08/12 00:16:15;;;;;;;13.07;8.40;;;21.10;99.90;;;;;;6134640;23;20100;-88
2023/08/12 00:18:42;;;;;;;14.77;9.10;;;21.10;99.90;;;;;;6158691;23;20013;-88
2023/08/12 00:21:12;;;;;;;14.15;10.20;;;21.10;99.90;;;;;;6134760;23;20466;-88
2023/08/12 00:23:40;;;;;;;12.32;9.05;;;21.00;99.90;;;;;;6159112;23;20111;-88
2023/08/12 00:26:06;;;;;;;14.27;10.68;;;21.00;99.90;;;;;;6134474;23;20016;-88
2023/08/12 00:28:33;;;;;;;13.82;10.15;;;21.00;99.90;;;;;;6133751;23;20036;-88
2023/08/12 00:30:59;;;;;;;12.63;10.00;;;21.00;99.90;;;;;;6134368;23;20012;-88
2023/08/12 00:33:24;;;;;;;12.07;9.35;;;21.00;99.90;;;;;;6158963;23;20024;-89
2023/08/12 00:35:50;;;;;;;15.52;10.70;;;21.00;99.90;;;;;;6158852;23;20017;-88
2023/08/12 00:38:16;;;;;;;13.80;9.90;;;20.90;99.90;;;;;;6133820;23;20041;-88
2023/08/12 00:40:41;;;;;;;14.55;10.35;;;20.90;99.90;;;;;;6134257;23;20451;-88
2023/08/12 00:43:09;;;;;;;14.13;10.40;;;20.90;99.90;;;;;;6134459;23;20343;-88
2023/08/12 00:45:35;;;;;;;13.88;10.63;;;20.90;99.90;;;;;;6158831;23;20059;-88
2023/08/12 00:48:01;;;;;;;13.30;9.82;;;20.90;99.90;;;;;;6156931;23;20390;-88
2023/08/12 00:50:28;;;;;;;16.02;11.13;;;20.90;99.90;;;;;;6132635;23;20602;-88
2023/08/12 00:52:53;;;;;;;15.48;11.13;;;20.90;99.90;;;;;;6133823;23;20009;-88
2023/08/12 00:55:19;;;;;;;16.90;12.10;;;20.90;99.90;;;;;;6133983;23;20066;-88
2023/08/12 00:57:45;;;;;;;16.77;12.60;;;20.90;99.90;;;;;;6133153;23;20009;-88
2023/08/12 01:00:12;;;;;;;15.25;11.63;;;20.80;99.90;;;;;;6158262;23;20036;-88
2023/08/12 01:02:38;;;;;;;16.73;13.10;;;20.90;99.90;;;;;;6134126;23;20439;-88
2023/08/12 01:05:04;;;;;;;17.55;12.90;;;20.90;99.90;;;;;;6134074;23;20016;-88
2023/08/12 01:07:29;;;;;;;17.48;12.95;;;20.80;99.90;;;;;;6132512;23;20092;-88
2023/08/12 01:09:55;;;;;;;15.88;12.23;;;20.80;99.90;;;;;;6182568;23;20048;-88
2023/08/12 01:12:36;;;;;;;18.05;12.57;;;20.80;99.90;;;;;;6158539;23;20044;-88
2023/08/12 01:15:08;;;;;;;16.05;12.20;;;20.80;99.90;;;;;;6133931;23;20009;-88
2023/08/12 01:17:37;;;;;;;14.93;11.75;;;20.80;99.90;;;;;;6157115;23;20092;-88
2023/08/12 01:20:12;;;;;;;15.95;12.50;;;20.70;99.90;;;;;;6133008;23;20016;-88
2023/08/12 01:22:41;;;;;;;16.50;12.02;;;20.70;99.90;;;;;;6158731;23;20016;-88
2023/08/12 01:25:07;;;;;;;15.45;12.15;;;20.70;99.90;;;;;;6133926;23;20342;-88
2023/08/12 01:27:35;;;;;;;16.70;12.20;;;20.70;99.90;;;;;;6133851;23;20016;-88
2023/08/12 01:30:01;;;;;;;16.20;12.43;;;20.70;99.90;;;;;;6133478;23;20446;-88
2023/08/12 01:32:45;;;;;;;19.15;12.75;;;20.70;99.90;;;;;;6158797;23;20009;-88
2023/08/12 01:35:13;;;;;;;17.10;11.02;;;20.70;99.90;;;;;;6133421;23;20063;-88
2023/08/12 01:37:40;;;;;;;16.30;11.95;;;20.70;99.90;;;;;;6157907;23;20030;-88
2023/08/12 01:40:09;;;;;;;18.10;12.40;;;20.70;99.90;;;;;;6158744;23;20013;-88
2023/08/12 01:42:35;;;;;;;18.02;12.30;;;20.60;99.90;;;;;;6133497;23;20012;-88
2023/08/12 01:45:02;;;;;;;16.83;11.73;;;20.70;99.90;;;;;;6133723;23;20031;-88
2023/08/12 01:47:28;;;;;;;16.38;11.20;;;20.60;99.90;;;;;;6156829;23;20017;-88
2023/08/12 01:49:54;;;;;;;15.25;11.10;;;20.60;99.90;;;;;;6133371;23;20100;-88
2023/08/12 01:52:20;;;;;;;17.17;12.75;;;20.60;99.90;;;;;;6133042;23;20017;-88
2023/08/12 01:54:46;;;;;;;14.68;11.85;;;20.60;99.90;;;;;;6183103;23;20027;-88
2023/08/12 01:57:12;;;;;;;15.23;12.07;;;20.60;99.90;;;;;;6157171;23;20096;-88
2023/08/12 01:59:38;;;;;;;16.27;13.45;;;20.60;99.90;;;;;;6132699;23;20009;-88
2023/08/12 02:02:04;;;;;;;17.23;12.10;;;20.60;99.90;;;;;;6158094;23;20009;-88
2023/08/12 02:04:30;;;;;;;17.70;14.38;;;20.60;99.90;;;;;;6134041;23;20398;-88
2023/08/12 02:06:56;;;;;;;16.55;12.77;;;20.60;99.90;;;;;;6157491;23;20017;-88
2023/08/12 02:09:22;;;;;;;17.25;13.18;;;20.60;99.90;;;;;;6157886;23;20016;-88
2023/08/12 02:11:48;;;;;;;18.15;13.07;;;20.50;99.90;;;;;;6158029;23;20067;-88
2023/08/12 02:14:15;;;;;;;15.98;12.48;;;20.50;99.90;;;;;;6133292;23;20024;-88
2023/08/12 02:16:40;;;;;;;16.10;12.45;;;20.50;99.90;;;;;;6156855;23;20607;-88
2023/08/12 02:19:06;;;;;;;18.35;13.98;;;20.50;99.90;;;;;;6133507;23;20042;-88
2023/08/12 02:21:32;;;;;;;16.23;12.40;;;20.50;99.90;;;;;;6158236;23;20016;-88
2023/08/12 02:23:57;;;;;;;18.92;13.48;;;20.50;99.90;;;;;;6157709;23;20013;-88
2023/08/12 02:26:23;;;;;;;17.23;13.43;;;20.50;99.90;;;;;;6158261;23;20009;-88
2023/08/12 02:28:49;;;;;;;17.95;13.75;;;20.50;99.90;;;;;;6158122;23;20017;-88
2023/08/12 02:31:16;;;;;;;15.82;12.85;;;20.50;99.90;;;;;;6159992;23;20332;-88
2023/08/12 02:33:42;;;;;;;15.43;12.15;;;20.50;99.90;;;;;;6160008;23;20020;-88
2023/08/12 02:36:07;;;;;;;16.45;13.25;;;20.50;99.90;;;;;;6159817;23;20020;-88
2023/08/12 02:38:33;;;;;;;15.25;12.23;;;20.50;99.90;;;;;;6134501;23;20013;-88
2023/08/12 02:40:59;;;;;;;16.80;12.52;;;20.50;99.90;;;;;;6159892;23;20107;-88
2023/08/12 02:43:24;;;;;;;15.68;12.23;;;20.50;99.90;;;;;;6135463;23;20020;-88
2023/08/12 02:45:50;;;;;;;16.70;12.55;;;20.50;99.90;;;;;;6160027;23;20009;-88
2023/08/12 02:48:16;;;;;;;16.80;13.20;;;20.50;99.90;;;;;;6159614;23;20017;-88
2023/08/12 02:50:41;;;;;;;17.67;12.82;;;20.50;99.90;;;;;;6160115;23;20016;-88
2023/08/12 02:53:08;;;;;;;15.48;11.75;;;20.50;99.90;;;;;;6159630;23;20020;-88
2023/08/12 02:55:33;;;;;;;18.42;13.77;;;20.50;99.90;;;;;;6159983;23;20021;-88
2023/08/12 02:58:01;;;;;;;15.77;11.48;;;20.50;99.90;;;;;;6159373;23;20025;-88
2023/08/12 03:00:27;;;;;;;15.60;11.13;;;20.50;99.90;;;;;;6159957;23;20016;-88
2023/08/12 03:02:53;;;;;;;19.70;12.18;;;20.50;99.90;;;;;;6160285;23;20009;-88
2023/08/12 03:05:19;;;;;;;15.45;11.23;;;20.50;99.90;;;;;;6135387;23;20458;-88
2023/08/12 03:07:45;;;;;;;18.08;13.48;;;20.50;99.90;;;;;;6159371;23;20455;-88
2023/08/12 03:10:11;;;;;;;15.77;11.73;;;20.50;99.90;;;;;;6160115;23;20028;-88
2023/08/12 03:12:36;;;;;;;15.18;11.48;;;20.50;99.90;;;;;;6135019;23;20017;-88
2023/08/12 03:15:02;;;;;;;16.42;12.05;;;20.40;99.90;;;;;;6159119;23;20016;-88
2023/08/12 03:17:28;;;;;;;17.40;12.18;;;20.40;99.90;;;;;;6134412;23;20017;-88
2023/08/12 03:19:56;;;;;;;18.10;12.63;;;20.40;99.90;;;;;;6185229;23;20020;-88
2023/08/12 03:22:22;;;;;;;13.85;11.27;;;20.40;99.90;;;;;;6134542;23;20469;-88
2023/08/12 03:24:48;;;;;;;15.98;11.63;;;20.40;99.90;;;;;;6134800;23;20005;-88
2023/08/12 03:27:14;;;;;;;16.05;12.02;;;20.40;99.90;;;;;;6133751;23;20017;-88
2023/08/12 03:29:39;;;;;;;18.13;13.15;;;20.40;99.90;;;;;;6158329;23;20020;-88
2023/08/12 03:32:05;;;;;;;16.60;11.65;;;20.40;99.90;;;;;;6158190;23;20048;-88
2023/08/12 03:34:31;;;;;;;16.48;12.95;;;20.40;99.90;;;;;;6158338;23;20092;-87
2023/08/12 03:36:56;;;;;;;17.38;12.50;;;20.30;99.90;;;;;;6157775;23;20079;-88
2023/08/12 03:39:22;;;;;;;15.77;11.80;;;20.30;99.90;;;;;;6133667;23;20324;-88
2023/08/12 03:41:50;;;;;;;17.17;12.45;;;20.30;99.90;;;;;;6134313;23;20497;-87
2023/08/12 03:44:15;;;;;;;18.20;12.70;;;20.30;99.90;;;;;;6158894;23;20005;-88
2023/08/12 03:46:41;;;;;;;13.88;11.88;;;20.30;99.90;;;;;;6158745;23;20585;-88
2023/08/12 03:49:07;;;;;;;17.30;12.32;;;20.30;99.90;;;;;;6134562;23;20079;-88
2023/08/12 03:51:32;;;;;;;16.27;13.13;;;20.30;99.90;;;;;;6134477;23;20351;-88
2023/08/12 03:53:58;;;;;;;14.75;11.55;;;20.30;99.90;;;;;;6134367;23;20021;-88
2023/08/12 03:56:24;;;;;;;15.15;11.88;;;20.30;99.90;;;;;;6158742;23;20036;-87
2023/08/12 03:58:50;;;;;;;18.80;12.75;;;20.30;99.90;;;;;;6158796;23;20005;-88
2023/08/12 04:01:15;;;;;;;18.15;12.93;;;20.30;99.90;;;;;;6159687;23;20009;-87
2023/08/12 04:03:41;;;;;;;16.75;13.48;;;20.30;99.90;;;;;;6134542;23;20017;-88
2023/08/12 04:06:06;;;;;;;19.02;14.35;;;20.30;99.90;;;;;;6134084;23;20084;-88
2023/08/12 04:08:33;;;;;;;19.58;15.70;;;20.30;99.90;;;;;;6134419;23;20084;-88
2023/08/12 04:10:59;;;;;;;17.33;12.70;;;20.20;99.90;;;;;;6134656;23;20013;-88
2023/08/12 04:13:24;;;;;;;17.33;12.85;;;20.20;99.90;;;;;;6158829;23;20020;-88
2023/08/12 04:15:52;;;;;;;19.02;13.55;;;20.20;99.90;;;;;;6159304;23;20465;-88
2023/08/12 04:18:19;;;;;;;16.73;13.52;;;20.20;99.90;;;;;;6158993;23;20017;-88
2023/08/12 04:20:53;;;;;;;18.13;13.43;;;20.20;99.90;;;;;;6159411;23;20009;-88
2023/08/12 04:23:19;;;;;;;19.35;14.45;;;20.20;99.90;;;;;;6159463;23;20530;-88
2023/08/12 04:25:47;;;;;;;18.25;15.10;;;20.20;99.90;;;;;;6158895;23;20032;-87
2023/08/12 04:28:13;;;;;;;18.73;15.40;;;20.20;99.90;;;;;;6134160;23;20013;-88
2023/08/12 04:30:43;;;;;;;20.35;15.60;;;20.20;99.90;;;;;;6134373;23;20013;-88
2023/08/12 04:33:09;;;;;;;17.73;15.82;;;20.20;99.90;;;;;;6134273;23;20017;-87
2023/08/12 04:35:35;;;;;;;23.27;16.25;;;20.20;99.90;;;;;;6158678;23;20013;-87
2023/08/12 04:38:01;;;;;;;21.05;16.35;;;20.20;99.90;;;;;;6158724;23;20430;-88
2023/08/12 04:40:27;;;;;;;20.00;16.98;;;20.20;99.90;;;;;;6159131;23;20013;-88
2023/08/12 04:42:52;;;;;;;21.83;16.95;;;20.20;99.90;;;;;;6158191;23;20071;-88
2023/08/12 04:45:18;;;;;;;19.65;16.27;;;20.20;99.90;;;;;;6158994;23;20367;-88
2023/08/12 04:47:44;;;;;;;24.27;19.70;;;20.20;99.90;;;;;;6158888;23;20096;-88
2023/08/12 04:50:10;;;;;;;22.23;18.30;;;20.20;99.90;;;;;;6159031;23;20017;-88
2023/08/12 04:52:36;;;;;;;25.38;18.65;;;20.20;99.90;;;;;;6158833;23;20013;-87
2023/08/12 04:55:02;;;;;;;23.70;18.85;;;20.20;99.90;;;;;;6134373;23;20017;-88
2023/08/12 04:57:28;;;;;;;22.38;18.08;;;20.20;99.90;;;;;;6158569;23;20013;-88
2023/08/12 04:59:55;;;;;;;24.95;20.08;;;20.20;99.90;;;;;;6134260;23;20012;-88
2023/08/12 05:02:21;;;;;;;23.80;20.38;;;20.20;99.90;;;;;;6158869;23;20084;-88
2023/08/12 05:04:50;;;;;;;22.45;19.52;;;20.20;99.90;;;;;;6158506;23;20412;-87
2023/08/12 05:07:16;;;;;;;22.40;19.35;;;20.20;99.90;;;;;;6158229;23;20013;-88
2023/08/12 05:09:45;;;;;;;26.40;21.38;;;20.20;99.90;;;;;;6133442;23;20056;-87
2023/08/12 05:12:11;;;;;;;25.92;20.88;;;20.20;99.90;;;;;;6132635;23;20036;-87
2023/08/12 05:14:39;;;;;;;22.98;20.50;;;20.20;99.90;;;;;;6133604;23;20071;-88
2023/08/12 05:17:05;;;;;;;23.67;21.13;;;20.20;99.90;;;;;;6132519;23;20052;-87
2023/08/12 05:19:31;;;;;;;26.50;21.92;;;20.20;99.90;;;;;;6158708;23;20024;-88
2023/08/12 05:21:56;;;;;;;26.35;21.40;;;20.20;99.90;;;;;;6133886;23;20355;-87
2023/08/12 05:24:22;;;;;;;26.08;23.08;;;20.20;99.90;;;;;;6158927;23;20009;-87
2023/08/12 05:26:48;;;;;;;25.77;21.92;;;20.20;99.90;;;;;;6158498;23;20016;-88
2023/08/12 05:29:13;;;;;;;25.70;22.42;;;20.30;99.90;;;;;;6133506;23;20013;-88
2023/08/12 05:31:39;;;;;;;26.95;22.63;;;20.30;99.90;;;;;;6134166;23;20019;-88
2023/08/12 05:34:05;;;;;;;26.42;22.25;;;20.30;99.90;;;;;;6133828;23;20017;-88
2023/08/12 05:36:30;;;;;;;24.35;21.75;;;20.30;99.90;;;;;;6132949;23;20062;-88
2023/08/12 05:38:56;;;;;;;26.17;23.20;;;20.40;99.90;;;;;;6158095;23;20062;-88
2023/08/12 05:41:22;;;;;;;30.08;25.33;;;20.40;99.90;;;;;;6134026;23;20538;-88
2023/08/12 05:43:51;;;;;;;26.27;23.48;;;20.40;99.90;;;;;;6133748;23;20017;-88
2023/08/12 05:46:16;;;;;;;26.55;22.35;;;20.40;99.90;;;;;;6158490;23;20067;-87
2023/08/12 05:48:42;;;;;;;26.98;23.60;;;20.50;99.90;;;;;;6133152;23;20021;-87
2023/08/12 05:51:08;;;;;;;27.10;22.90;;;20.50;99.90;;;;;;6134029;23;20013;-88
2023/08/12 05:53:34;;;;;;;23.35;20.45;;;20.50;99.90;;;;;;6158249;23;20028;-87
2023/08/12 05:55:59;;;;;;;26.55;23.73;;;20.60;99.90;;;;;;6158823;23;20016;-87
2023/08/12 05:58:25;;;;;;;25.58;22.88;;;20.60;99.90;;;;;;6133305;23;20013;-88
2023/08/12 06:00:51;;;;;;;25.23;20.50;;;20.70;99.90;;;;;;6133023;23;20044;-88
2023/08/12 06:03:16;;;;;;;26.42;23.48;;;20.70;99.90;;;;;;6158320;23;20009;-88
2023/08/12 06:05:46;;;;;;;26.73;23.83;;;20.90;99.90;;;;;;6131702;23;20020;-88
2023/08/12 06:08:12;;;;;;;27.00;24.25;;;20.90;99.90;;;;;;6132617;23;20013;-88
2023/08/12 06:10:38;;;;;;;28.38;25.35;;;21.00;99.90;;;;;;6133784;23;20009;-88
2023/08/12 06:13:04;;;;;;;28.67;25.30;;;21.10;99.90;;;;;;6157495;23;20151;-88
2023/08/12 06:15:29;;;;;;;29.08;26.08;;;21.10;99.90;;;;;;6157824;23;20316;-88
2023/08/12 06:17:55;;;;;;;28.77;25.38;;;21.10;99.90;;;;;;6174814;23;20036;-86
2023/08/12 06:20:22;;;;;;;30.50;26.50;;;21.10;99.90;;;;;;6165436;23;20021;-88
2023/08/12 06:22:48;;;;;;;28.83;25.92;;;21.20;99.90;;;;;;6135338;23;20091;-88
2023/08/12 06:25:17;;;;;;;29.55;26.35;;;21.20;99.90;;;;;;6135038;23;20020;-87
2023/08/12 06:27:43;;;;;;;29.70;26.83;;;21.10;99.90;;;;;;6158828;23;20328;-88
2023/08/12 06:30:10;;;;;;;29.00;25.50;;;21.10;99.90;;;;;;6159311;23;20328;-88
2023/08/12 06:32:35;;;;;;;30.83;27.52;;;21.10;99.90;;;;;;6134974;23;20009;-88
2023/08/12 06:35:01;;;;;;;29.95;26.73;;;21.10;99.90;;;;;;6143245;23;20024;-88
2023/08/12 06:37:27;;;;;;;29.88;26.73;;;21.10;99.90;;;;;;6164303;23;20084;-88
2023/08/12 06:39:52;;;;;;;27.55;24.65;;;21.10;99.90;;;;;;6158607;23;20013;-88
2023/08/12 06:42:18;;;;;;;27.88;25.02;;;21.10;99.90;;;;;;6158148;23;20016;-87
2023/08/12 06:44:44;;;;;;;27.98;24.98;;;21.10;99.90;;;;;;6158848;23;20060;-87
2023/08/12 06:47:10;;;;;;;29.77;26.60;;;21.10;99.90;;;;;;6158284;23;20013;-88
2023/08/12 06:49:36;;;;;;;28.60;25.70;;;21.10;99.90;;;;;;6133091;23;20056;-88
2023/08/12 06:52:01;;;;;;;29.58;26.40;;;21.10;99.90;;;;;;6158250;23;20053;-88
2023/08/12 06:54:27;;;;;;;27.25;24.50;;;21.10;99.90;;;;;;6157729;23;20067;-88
2023/08/12 06:56:53;;;;;;;27.85;25.02;;;21.10;99.90;;;;;;6156992;23;20087;-88
2023/08/12 06:59:18;;;;;;;28.00;25.13;;;21.00;99.90;;;;;;6157521;23;20009;-87
2023/08/12 07:01:44;;;;;;;28.20;25.25;;;21.10;99.90;;;;;;6157302;23;20016;-87
2023/08/12 07:04:10;;;;;;;27.35;24.50;;;21.00;99.90;;;;;;6157153;23;20477;-88
2023/08/12 07:06:35;;;;;;;27.38;24.67;;;21.10;99.90;;;;;;6133112;23;20009;-88
2023/08/12 07:09:01;;;;;;;27.15;24.27;;;21.10;99.90;;;;;;6132709;23;20017;-87
2023/08/12 07:11:26;;;;;;;27.27;24.38;;;21.10;99.90;;;;;;6132192;23;20052;-88
2023/08/12 07:13:52;;;;;;;25.55;22.55;;;21.10;99.90;;;;;;6157356;23;20013;-88
2023/08/12 07:16:18;;;;;;;25.50;22.65;;;21.10;99.90;;;;;;6158305;23;20016;-88
2023/08/12 07:18:43;;;;;;;27.70;23.38;;;21.10;99.90;;;;;;6158811;23;20458;-88
2023/08/12 07:21:09;;;;;;;26.75;23.77;;;21.10;99.90;;;;;;6159621;23;20016;-87
2023/08/12 07:23:34;;;;;;;24.52;22.08;;;21.10;99.90;;;;;;6135010;23;20009;-88
2023/08/12 07:26:00;;;;;;;24.35;21.63;;;21.10;99.90;;;;;;6134981;23;20009;-87
2023/08/12 07:28:26;;;;;;;24.77;22.08;;;21.10;99.90;;;;;;6158818;23;20013;-88
2023/08/12 07:30:52;;;;;;;23.75;21.20;;;21.10;99.90;;;;;;6159641;23;20017;-88
2023/08/12 07:33:19;;;;;;;22.63;20.20;;;21.10;99.90;;;;;;6134416;23;20019;-87
2023/08/12 07:35:45;;;;;;;22.52;20.15;;;21.10;99.90;;;;;;6158945;23;20040;-88
2023/08/12 07:38:10;;;;;;;22.80;19.10;;;21.10;99.90;;;;;;6134477;23;20020;-88
2023/08/12 07:40:36;;;;;;;23.48;19.33;;;21.10;99.90;;;;;;6159294;23;20009;-88
2023/08/12 07:43:02;;;;;;;22.50;19.27;;;21.10;99.90;;;;;;6159392;23;20016;-87
2023/08/12 07:45:27;;;;;;;20.92;17.85;;;21.10;99.90;;;;;;6135181;23;20005;-88
2023/08/12 07:47:53;;;;;;;20.98;18.70;;;21.10;99.90;;;;;;6159037;23;20092;-87
2023/08/12 07:50:19;;;;;;;21.27;19.08;;;21.10;99.90;;;;;;6134964;23;20101;-87
2023/08/12 07:52:45;;;;;;;22.10;19.25;;;21.10;99.90;;;;;;6159408;23;20020;-88
2023/08/12 07:55:12;;;;;;;20.45;18.23;;;21.10;99.90;;;;;;6135067;23;20015;-88
2023/08/12 07:57:38;;;;;;;19.77;17.67;;;21.10;99.90;;;;;;6158940;23;20013;-88
2023/08/12 08:00:05;;;;;;;19.77;17.63;;;21.10;99.90;;;;;;6158346;23;20012;-88
2023/08/12 08:02:30;;;;;;;19.65;17.35;;;21.10;99.90;;;;;;6134181;23;20063;-88
2023/08/12 08:04:56;;;;;;;21.42;18.83;;;21.10;99.90;;;;;;6134200;23;20009;-87
2023/08/12 08:07:21;;;;;;;20.35;17.35;;;21.10;99.90;;;;;;6133904;23;20335;-88
2023/08/12 08:09:47;;;;;;;20.13;17.30;;;21.10;99.90;;;;;;6158445;23;20079;-87
2023/08/12 08:12:13;;;;;;;19.35;17.30;;;21.10;99.90;;;;;;6157760;23;20559;-88
2023/08/12 08:14:38;;;;;;;20.40;18.20;;;21.10;99.90;;;;;;6157480;23;20096;-88
2023/08/12 08:17:04;;;;;;;22.25;18.50;;;21.00;99.90;;;;;;6133827;23;20056;-88
2023/08/12 08:19:30;;;;;;;21.83;18.77;;;21.00;99.90;;;;;;6133626;23;20537;-87
2023/08/12 08:21:58;;;;;;;19.23;17.13;;;21.00;99.90;;;;;;6158739;23;20016;-88
2023/08/12 08:24:23;;;;;;;19.70;17.25;;;21.00;99.90;;;;;;6134256;23;20005;-88
2023/08/12 08:26:49;;;;;;;20.52;18.38;;;21.00;99.90;;;;;;6158288;23;20489;-87
2023/08/12 08:29:14;;;;;;;19.17;17.15;;;21.00;99.90;;;;;;6134297;23;20063;-88
2023/08/12 08:31:40;;;;;;;22.00;19.35;;;21.00;99.90;;;;;;6158947;23;20017;-88
2023/08/12 08:34:06;;;;;;;23.73;20.45;;;20.90;99.90;;;;;;6134140;23;20028;-87
2023/08/12 08:36:31;;;;;;;20.70;18.50;;;21.00;99.90;;;;;;6158473;23;20023;-88
2023/08/12 08:38:57;;;;;;;20.27;18.05;;;20.90;99.90;;;;;;6158811;23;20092;-88
2023/08/12 08:41:24;;;;;;;21.17;18.20;;;21.00;99.90;;;;;;6158820;23;20088;-88
2023/08/12 08:43:52;;;;;;;20.10;18.00;;;20.90;99.90;;;;;;6159296;23;20510;-88
2023/08/12 08:46:18;;;;;;;19.00;17.00;;;20.90;99.90;;;;;;6134000;23;20397;-88
2023/08/12 08:48:46;;;;;;;20.88;18.67;;;21.00;99.90;;;;;;6158029;23;20470;-88
2023/08/12 08:51:12;;;;;;;18.25;16.42;;;21.00;99.90;;;;;;6133619;23;20021;-88
2023/08/12 08:53:39;;;;;;;19.05;16.73;;;21.00;99.90;;;;;;6158696;23;20031;-88
2023/08/12 08:56:11;;;;;;;18.27;16.35;;;21.00;99.90;;;;;;6134037;23;20401;-88
2023/08/12 08:58:40;;;;;;;18.67;16.77;;;21.00;99.90;;;;;;6134004;23;20013;-88
2023/08/12 09:01:07;;;;;;;19.20;17.20;;;21.10;99.90;;;;;;6134246;23;20072;-88
2023/08/12 09:03:36;;;;;;;17.55;15.68;;;21.00;99.90;;;;;;6157771;23;20015;-88
2023/08/12 09:06:03;;;;;;;18.20;16.25;;;21.10;99.90;;;;;;6134312;23;20049;-88
2023/08/12 09:08:31;;;;;;;17.67;15.25;;;21.10;99.90;;;;;;6133998;23;20016;-88
2023/08/12 09:10:59;;;;;;;17.45;15.65;;;21.10;99.90;;;;;;6158944;23;20052;-88
2023/08/12 09:13:25;;;;;;;17.70;15.90;;;21.10;99.90;;;;;;6134285;23;20435;-88
2023/08/12 09:15:50;;;;;;;17.55;15.63;;;21.00;99.90;;;;;;6133683;23;20017;-88
2023/08/12 09:18:17;;;;;;;17.70;16.00;;;21.10;99.90;;;;;;6133505;23;20484;-88
2023/08/12 09:20:43;;;;;;;16.85;14.82;;;21.00;99.90;;;;;;6134024;23;20009;-88
2023/08/12 09:23:10;;;;;;;18.90;17.00;;;21.00;99.90;;;;;;6133492;23;20013;-88
2023/08/12 09:25:42;;;;;;;18.20;16.33;;;20.90;99.90;;;;;;6133564;23;20328;-88
2023/08/12 09:28:09;;;;;;;16.90;15.15;;;20.90;99.90;;;;;;6157309;23;20064;-87
2023/08/12 09:30:35;;;;;;;17.30;15.10;;;20.90;99.90;;;;;;6158308;23;20016;-88
2023/08/12 09:33:03;;;;;;;16.55;14.65;;;20.90;99.90;;;;;;6133466;23;20020;-88
2023/08/12 09:35:37;;;;;;;15.27;13.73;;;20.90;99.90;;;;;;6132367;23;20016;-88
2023/08/12 09:38:08;;;;;;;16.40;14.70;;;20.90;99.90;;;;;;6157462;23;20020;-88
2023/08/12 09:40:35;;;;;;;14.13;12.63;;;20.90;99.90;;;;;;6157841;23;20013;-88
2023/08/12 09:43:01;;;;;;;15.65;13.88;;;20.80;99.90;;;;;;6158055;23;20009;-88
2023/08/12 09:45:27;;;;;;;15.00;13.40;;;20.80;99.90;;;;;;6157593;23;20013;-87
2023/08/12 09:47:54;;;;;;;13.57;12.13;;;20.80;99.90;;;;;;6158000;23;20017;-89
2023/08/12 09:50:25;;;;;;;9.38;7.45;;;20.80;99.90;;;;;;6133580;23;20013;-88
2023/08/12 09:52:52;;;;;;;11.05;8.07;;;20.80;99.90;;;;;;6158161;23;20091;-88
2023/08/12 09:55:19;;;;;;;10.50;7.35;;;20.70;99.90;;;;;;6133400;23;20013;-89
2023/08/12 09:57:48;;;;;;;11.35;7.57;;;20.70;99.90;;;;;;6133214;23;20010;-88
2023/08/12 10:00:18;;;;;;;11.50;8.00;;;20.70;99.90;;;;;;6157839;23;20462;-88
2023/08/12 10:02:45;;;;;;;10.90;7.68;;;20.70;99.90;;;;;;6158642;23;20346;-88
2023/08/12 10:05:32;;;;;;;10.25;7.32;;;20.70;99.90;;;;;;6133198;23;20067;-88
2023/08/12 10:07:58;;;;;;;9.55;6.97;;;20.70;99.90;;;;;;6157552;23;20013;-88
2023/08/12 10:10:25;;;;;;;8.48;5.50;;;20.70;99.90;;;;;;6133949;23;20363;-88
2023/08/12 10:12:51;;;;;;;7.88;4.40;;;20.70;99.90;;;;;;6157589;23;20017;-88
2023/08/12 10:15:18;;;;;;;10.43;6.32;;;20.70;99.90;;;;;;6157616;23;20096;-88
2023/08/12 10:17:45;;;;;;;10.30;6.57;;;20.70;99.90;;;;;;6132459;23;20013;-88
2023/08/12 10:20:20;;;;;;;9.70;6.55;;;20.80;99.90;;;;;;6157622;23;20088;-88
2023/08/12 10:22:46;;;;;;;11.73;6.07;;;20.80;99.90;;;;;;6132346;23;20084;-88
2023/08/12 10:25:13;;;;;;;9.15;6.07;;;20.80;99.90;;;;;;6132589;23;20091;-88
2023/08/12 10:27:39;;;;;;;8.77;5.30;;;20.90;99.90;;;;;;6133104;23;20394;-88
2023/08/12 10:30:06;;;;;;;7.88;4.38;;;20.90;99.90;;;;;;6157692;23;20021;-88
2023/08/12 10:32:32;;;;;;;8.48;4.45;;;20.90;99.90;;;;;;6133601;23;20083;-89
2023/08/12 10:34:58;;;;;;;6.95;3.97;;;20.90;99.90;;;;;;6157822;23;20024;-88
2023/08/12 10:37:25;;;;;;;6.07;3.33;;;20.90;99.90;;;;;;6157363;23;20010;-88
2023/08/12 10:39:55;;;;;;;6.82;3.22;;;21.00;99.90;;;;;;6157676;23;20009;-88
2023/08/12 10:42:41;;;;;;;8.27;3.65;;;21.00;99.90;;;;;;6157787;23;20664;-88
2023/08/12 10:45:07;;;;;;;7.05;3.72;;;21.00;99.90;;;;;;6157695;23;20501;-88
2023/08/12 10:47:34;;;;;;;6.80;2.83;;;21.00;99.90;;;;;;6133430;23;20017;-89
2023/08/12 10:50:01;;;;;;;6.05;2.80;;;21.00;99.90;;;;;;6158128;23;20019;-92
2023/08/12 10:52:28;;;;;;;5.78;2.58;;;21.10;99.90;;;;;;6132891;23;20025;-88
2023/08/12 10:54:54;;;;;;;5.18;2.42;;;21.00;99.90;;;;;;6132320;23;20044;-89
2023/08/12 10:57:37;;;;;;;5.32;2.35;;;21.00;99.90;;;;;;6131178;23;20020;-89
2023/08/12 11:00:04;;;;;;;5.00;2.38;;;21.00;99.90;;;;;;6131879;23;20124;-89
2023/08/12 11:02:33;;;;;;;4.13;2.03;;;20.90;99.90;;;;;;6131639;23;20013;-88
2023/08/12 11:05:03;;;;;;;3.05;1.27;;;20.90;99.90;;;;;;6131683;23;20026;-88
2023/08/12 11:08:03;;;;;;;3.08;1.20;;;20.90;99.90;;;;;;6134490;23;20048;-89
2023/08/12 11:10:33;;;;;;;1.75;0.90;;;20.90;99.90;;;;;;6134958;23;20017;-88
2023/08/12 11:13:00;;;;;;;2.15;1.10;;;20.80;99.90;;;;;;6159708;23;20096;-88
2023/08/12 11:15:30;;;;;;;2.70;1.13;;;20.80;99.90;;;;;;6135020;23;20013;-87
2023/08/12 11:17:56;;;;;;;2.80;1.20;;;20.80;99.90;;;;;;6134767;23;20017;-88
2023/08/12 11:20:22;;;;;;;3.20;1.20;;;20.80;99.90;;;;;;6135134;23;20044;-87
2023/08/12 11:22:47;;;;;;;2.45;1.00;;;20.70;99.90;;;;;;6134901;23;20355;-88
2023/08/12 11:25:14;;;;;;;2.97;1.13;;;20.70;99.90;;;;;;6135360;23;20016;-88
2023/08/12 11:27:41;;;;;;;2.40;1.10;;;20.70;99.90;;;;;;6159593;23;20064;-88
2023/08/12 11:30:08;;;;;;;1.40;0.90;;;20.60;99.90;;;;;;6159203;23;20017;-88
2023/08/12 11:32:34;;;;;;;2.35;0.93;;;20.60;99.90;;;;;;6156057;23;20043;-88
2023/08/12 11:35:00;;;;;;;1.63;0.80;;;20.60;99.90;;;;;;6131625;23;20013;-88
2023/08/12 11:37:26;;;;;;;2.15;0.98;;;20.50;99.90;;;;;;6131107;23;20051;-88
2023/08/12 11:39:52;;;;;;;1.70;0.80;;;20.40;99.90;;;;;;6131651;23;20225;-88
2023/08/12 11:42:18;;;;;;;2.63;0.90;;;20.40;99.90;;;;;;6155949;23;20016;-89
2023/08/12 11:44:43;;;;;;;2.03;0.90;;;20.40;99.90;;;;;;6131710;23;20013;-88
2023/08/12 11:47:09;;;;;;;1.95;0.80;;;20.40;99.90;;;;;;6156245;23;20099;-88
2023/08/12 11:49:35;;;;;;;3.30;1.00;;;20.60;99.90;;;;;;6156174;23;20358;-88
2023/08/12 11:52:00;;;;;;;1.83;0.73;;;20.60;99.90;;;;;;6156009;23;20016;-89
2023/08/12 11:54:27;;;;;;;2.05;0.98;;;20.80;99.90;;;;;;6131838;23;20039;-88
2023/08/12 11:56:53;;;;;;;1.90;0.82;;;21.00;99.90;;;;;;6155668;23;20017;-87
2023/08/12 11:59:21;;;;;;;2.67;0.88;;;21.10;99.90;;;;;;6131286;23;20017;-89
2023/08/12 12:01:49;;;;;;;2.83;0.85;;;21.20;99.90;;;;;;6156122;23;20100;-89
2023/08/12 12:04:15;;;;;;;1.65;0.95;;;21.40;99.90;;;;;;6155941;23;20009;-88
2023/08/12 12:06:42;;;;;;;2.13;0.90;;;21.50;99.90;;;;;;6133234;23;20009;-90
2023/08/12 12:09:11;;;;;;;2.88;1.13;;;21.60;99.90;;;;;;6159250;23;20451;-88
2023/08/12 12:11:37;;;;;;;1.45;0.93;;;21.60;99.90;;;;;;6134832;23;20052;-88
2023/08/12 12:14:04;;;;;;;3.22;1.60;;;21.60;99.90;;;;;;6159520;23;20036;-88
2023/08/12 12:16:56;;;;;;;4.05;1.45;;;21.70;99.90;;;;;;6158975;23;20059;-88
2023/08/12 12:19:22;;;;;;;2.60;1.40;;;21.80;99.90;;;;;;6130080;23;20017;-88
2023/08/12 12:21:50;;;;;;;3.17;1.42;;;21.80;99.90;;;;;;6159409;23;20009;-88
2023/08/12 12:24:17;;;;;;;2.97;1.45;;;21.90;99.90;;;;;;6159248;23;20016;-88
2023/08/12 12:26:44;;;;;;;3.15;1.45;;;22.00;99.90;;;;;;6134180;23;20459;-89
2023/08/12 12:29:11;;;;;;;3.85;1.70;;;21.90;99.90;;;;;;6134155;23;20020;-88